This is the latest recevied weather packets stored in our database for station/object N0TKN. If no packets are shown the sender has not sent any weather packets the latest 10 day(s).
| Time | Temp. | Humidity | Pressure | Rain* | Wind** | Luminosity | Snow |
|---|---|---|---|---|---|---|---|
| 1778105716 | 16.11° C | 40% | 1015.5 hPa | 0 mm | - | 438 W/m² | - |
| 1778105116 | 16.11° C | 38% | 1015.5 hPa | 0 mm | - | 472 W/m² | - |
| 1778104516 | 16.11° C | 39% | 1015.2 hPa | 0 mm | - | 503 W/m² | - |
| 1778103916 | 16.11° C | 39% | 1015.3 hPa | 0 mm | - | 536 W/m² | - |
| 1778103317 | 16.11° C | 39% | 1015.2 hPa | 0 mm | - | 569 W/m² | - |
| 1778102717 | 16.11° C | 39% | 1015.2 hPa | 0 mm | - | 600 W/m² | - |
| 1778102117 | 16.67° C | 41% | 1015.1 hPa | 0 mm | - | 629 W/m² | - |
| 1778101517 | 16.67° C | 40% | 1015.2 hPa | 0 mm | - | 661 W/m² | - |
| 1778100917 | 16.67° C | 39% | 1015.1 hPa | 0 mm | - | 690 W/m² | - |
| 1778100317 | 16.67° C | 41% | 1015.2 hPa | 0 mm | - | 715 W/m² | - |
| 1778099717 | 16.11° C | 42% | 1015.4 hPa | 0 mm | - | 745 W/m² | - |
| 1778099118 | 16.11° C | 42% | 1015.5 hPa | 0 mm | - | 768 W/m² | - |
| 1778098518 | 16.67° C | 41% | 1015.4 hPa | 0 mm | - | 799 W/m² | - |
| 1778097918 | 16.67° C | 40% | 1015.8 hPa | 0 mm | - | 829 W/m² | - |
| 1778097318 | 16.67° C | 40% | 1015.5 hPa | 0 mm | - | 840 W/m² | - |
| 1778096718 | 16.67° C | 42% | 1015.3 hPa | 0 mm | - | 874 W/m² | - |
| 1778096115 | 16.11° C | 43% | 1015.6 hPa | 0 mm | - | 903 W/m² | - |
| 1778095516 | 16.11° C | 45% | 1015.6 hPa | 0 mm | - | 808 W/m² | - |
| 1778094916 | 15.56° C | 47% | 1016 hPa | 0 mm | - | 756 W/m² | - |
| 1778094316 | 15.56° C | 47% | 1015.7 hPa | 0 mm | - | 886 W/m² | - |
| 1778093717 | 15.56° C | 48% | 1015.8 hPa | 0 mm | - | 779 W/m² | - |
| 1778093116 | 15.56° C | 48% | 1016 hPa | 0 mm | - | 834 W/m² | - |
| 1778092516 | 15° C | 48% | 1015.5 hPa | 0 mm | - | 1067 W/m² | - |
| 1778091917 | 15° C | 47% | 1016.7 hPa | 0 mm | - | 705 W/m² | - |
| 1778091317 | 15° C | 46% | 1015.8 hPa | 0 mm | - | 1009 W/m² | - |
* Rain latest hour (hover to see other rain measurements)
** Current wind speed in m/s (hover to see current wind gust speed)